Dalton, Missouri
Current Conditions -  °F | °C
As of 3:35 PM on Thursday 23 Oct 2014 (Local Time) from KVER Reporting Station
Overcast Overcast  
Wind Chill: 68°   Ceiling: 3100
Heat Index: 68°   Visibility: 10mi
Dew Point: 54°   Wind: 6mph
Humidity: 61%   Direction: 230°SW
Pressure: 30.06"   Gusts: NA
Location:  39.4°N, 92.99°W
Report Text: KVER 232035Z AUTO 23005KT 10SM OVC031 20/12 A3006 RMK AO2 T02010124
Loading
Personal Weather Stations






























Interactive Weather Map
Tropical Storm Tracking
New forecast layout! Learn more

10-Day Weather Forecast

Advertisements
Track Severe Weather on mobile